Reklama

Seznam meteostanic a jejich METAR

Vyhledat místa podle abecedy:
A B C D E F G H I J K L M N O P Q R S T U V W X Y Z

Filtrovat:

ID stanice:
a/nebo
Název místa (fulltext):
 
Místo (ID)Naposledy načteno 
Zadar (LDZD) 31.05.2020 03:00 UTC Zobrazit METAR
LDZD 310300Z VRB02KT 9999 FEW070 06/04 Q1016 NOSIG
Zagreb (LDZA) 31.05.2020 03:00 UTC Zobrazit METAR
LDZA 310300Z 24004KT CAVOK 07/06 Q1017 NOSIG
Zaragoza (LEZG) 31.05.2020 03:00 UTC Zobrazit METAR
LEZG 310300Z 11005KT 080V140 CAVOK 18/15 Q1013
Zhezkazgan (UAKD) Zatím nenačteno  
Zurich (LSZH) 31.05.2020 02:50 UTC Zobrazit METAR
LSZH 310250Z 29004KT CAVOK 07/04 Q1018 NOSIG
Reklama

Lunární kalendář

  • 05.06.Fáze měsíce uplnek
  • 13.06.Fáze měsíce posl_ctvrt
  • 21.06.Fáze měsíce nov
  • 28.06.Fáze měsíce prv_ctvrt



Reklama
Meteodomečky

Počasí na Váš email

Emaily jsou bez reklamy a bez spamu



Odhlásit newsletter

Reklama


Další české internetové stránky (nejen) o počasí najdete v katalogu TOPlist - weby o počasí nebo vyhledejte na internetu, co jste tu na 🌞 Slunečnu ⛅ zatím nenašli:

Reklama